CheckWX is a tool to help pilots better visualize weather data.  It is not intended as a substitute for an official pre-flight weather briefing.

07:15:55 UTC

KAEG TAF
Double Eagle II Airport
Albuquerque, New Mexico, USA
KAEG 200520Z 2006/2106 29007KT P6SM SKC FM201000 VRB04KT P6SM SKC FM201600 23008KT P6SM SKC FM202000 22012G22KT P6SM FEW140 FM210200 25011KT P6SM SKC

Jun-20@
06:00 UTC

Jun-20 @ 06:00 UTC

Jun-20@
10:00 UTC

Jun-20 @ 10:00 UTC

KAEG 200520Z 2006/2106 29007KT P6SM SKC
Wind
  • 290° at 7 KTS
Cloud Levels
  • Clear skies

Jun-20@
10:00 UTC

Jun-20 @ 10:00 UTC

Jun-20@
16:00 UTC

Jun-20 @ 16:00 UTC

FM201000 VRB04KT P6SM SKC

From

From Standard forecast or significant change

Wind
  • Variable at 4 KTS
Cloud Levels
  • Clear skies

Jun-20@
16:00 UTC

Jun-20 @ 16:00 UTC

Jun-20@
20:00 UTC

Jun-20 @ 20:00 UTC

FM201600 23008KT P6SM SKC

From

From Standard forecast or significant change

Wind
  • 230° at 8 KTS
Cloud Levels
  • Clear skies

Jun-20@
20:00 UTC

Jun-20 @ 20:00 UTC

Jun-21@
02:00 UTC

Jun-21 @ 02:00 UTC

FM202000 22012G22KT P6SM FEW140

From

From Standard forecast or significant change

Wind
  • 220° at 12 KTS
  • {Gusting to 22 KTS
Cloud Levels
  • Few at 14,000' AGL

Jun-21@
02:00 UTC

Jun-21 @ 02:00 UTC

Jun-21@
06:00 UTC

Jun-21 @ 06:00 UTC

FM210200 25011KT P6SM SKC

From

From Standard forecast or significant change

Wind
  • 250° at 11 KTS
Cloud Levels
  • Clear skies